Decoded Metar for LFBC (CAZAUX in FRANCE) (IATA:N/A) | Meteo·Mobile Aviation Weather
aviador You're here:

LFBC Decoded Metar

CAZAUX in FRANCE
Report Time2018-11-17 22:00:00
UTC Time2018-11-17 22:08:33
Flight Rules lifr LIFR
Wind060° at 08 kt
W.Decomp.*RWY 06: 8.0 kt HW 0.1 kt RCW
W.Rank060° ranks 21
Current wind is above 060° avg. (5.3)
Visibility4600 m
Phenomena:Mist
Clouds:Overcast 003 Hf
Ceiling300 ft
Temp10°C (ISA -5)
Dew Point10°C (100% RH)
AAT7.2°C
QNH1013 hPa
Density Alt-299 ft
Elevation108 ft
Report Wrong Elevation
Raw Report
METAR LFBC 172200Z AUTO 06008KT 020V090 4600 BR OVC003 10/10 Q1013=

Extra information for LFBC:More info

Metar Taf Metar & Taf Last 4 Metars F.Rules Stats Wind Profile Meteogram Temp Stats Airport Information Weather charts Add Link Nearby VenuesMetar ALERT Operation Metar Decoded Social comments